Time;durP1;ratioP1;P1;durP2;ratioP2;P2;SDS_P1;SDS_P2;PMS_P1;PMS_P2;Temp;Humidity;BMP_temperature;BMP_pressure;BME280_temperature;BME280_humidity;BME280_pressure;Samples;Min_cycle;Max_cycle;Signal;HPM_P1;HPM_P2
2021/12/27 00:00:28;;;;;;;1.20;1.10;;;7.50;85.60;;;;;;5052525;28;20028;-74
2021/12/27 00:02:57;;;;;;;1.42;0.90;;;7.50;85.80;;;;;;5052762;28;20029;-72
2021/12/27 00:05:23;;;;;;;1.90;1.00;;;7.50;86.00;;;;;;5052680;28;20551;-73
2021/12/27 00:07:50;;;;;;;0.80;0.80;;;7.50;85.80;;;;;;5034573;28;20025;-73
2021/12/27 00:10:18;;;;;;;1.40;1.00;;;7.40;85.50;;;;;;5052440;28;20032;-73
2021/12/27 00:12:43;;;;;;;1.35;0.98;;;7.40;85.80;;;;;;5052467;28;20389;-73
2021/12/27 00:15:10;;;;;;;1.27;1.17;;;7.50;85.90;;;;;;5052598;28;20033;-72
2021/12/27 00:17:36;;;;;;;1.85;1.08;;;7.40;85.80;;;;;;5052453;28;20021;-75
2021/12/27 00:20:10;;;;;;;1.52;0.88;;;7.40;85.90;;;;;;5052472;28;20029;-72
2021/12/27 00:22:37;;;;;;;1.10;0.80;;;7.50;85.90;;;;;;5052427;28;20017;-72
2021/12/27 00:25:03;;;;;;;1.58;0.95;;;7.40;85.50;;;;;;5052435;28;20410;-71
2021/12/27 00:27:29;;;;;;;3.42;1.50;;;7.40;85.50;;;;;;5052212;28;20048;-72
2021/12/27 00:29:54;;;;;;;1.08;0.98;;;7.40;85.50;;;;;;5053799;28;20470;-72
2021/12/27 00:32:20;;;;;;;1.70;1.00;;;7.40;85.50;;;;;;5056108;28;20043;-72
2021/12/27 00:34:46;;;;;;;0.82;0.82;;;7.40;85.30;;;;;;5055998;28;20111;-72
2021/12/27 00:37:11;;;;;;;1.08;0.82;;;7.40;85.30;;;;;;5056047;28;20090;-72
2021/12/27 00:39:37;;;;;;;0.82;0.65;;;7.30;85.50;;;;;;5038138;28;20056;-72
2021/12/27 00:42:04;;;;;;;1.88;1.10;;;7.30;85.60;;;;;;5056017;28;20053;-72
2021/12/27 00:44:30;;;;;;;1.10;0.90;;;7.20;85.60;;;;;;5037961;28;20025;-72
2021/12/27 00:46:56;;;;;;;1.63;1.13;;;7.20;85.50;;;;;;5055847;28;20389;-72
2021/12/27 00:49:21;;;;;;;1.30;1.10;;;7.20;85.60;;;;;;5055840;28;20043;-71
2021/12/27 00:51:47;;;;;;;1.30;1.10;;;7.20;85.60;;;;;;5055865;28;20032;-74
2021/12/27 00:54:13;;;;;;;2.22;1.30;;;7.20;85.60;;;;;;5055657;28;20036;-72
2021/12/27 00:56:39;;;;;;;1.80;1.10;;;7.20;85.60;;;;;;5037845;28;20469;-71
2021/12/27 00:59:04;;;;;;;1.52;1.10;;;7.20;85.60;;;;;;5055643;28;20029;-72
2021/12/27 01:01:30;;;;;;;1.48;1.08;;;7.10;85.70;;;;;;5055662;28;20052;-71
2021/12/27 01:03:56;;;;;;;1.83;1.50;;;7.10;85.80;;;;;;5055602;28;20028;-71
2021/12/27 01:06:21;;;;;;;1.75;1.20;;;7.10;85.90;;;;;;5055541;28;20025;-71
2021/12/27 01:08:47;;;;;;;1.58;1.30;;;7.10;85.70;;;;;;5055312;28;20045;-71
2021/12/27 01:11:25;;;;;;;2.17;1.00;;;7.00;85.30;;;;;;5055528;28;20473;-74
2021/12/27 01:14:10;;;;;;;1.40;1.10;;;7.00;85.40;;;;;;5037467;28;20029;-73
2021/12/27 01:16:36;;;;;;;1.05;0.90;;;7.00;86.20;;;;;;5055272;28;20438;-73
2021/12/27 01:19:02;;;;;;;1.65;1.13;;;7.00;85.50;;;;;;5055254;28;20056;-73
2021/12/27 01:21:27;;;;;;;2.03;1.42;;;7.00;85.50;;;;;;5055055;28;20076;-74
2021/12/27 01:23:55;;;;;;;2.05;1.50;;;7.00;85.60;;;;;;5037543;28;20040;-73
2021/12/27 01:26:21;;;;;;;2.33;1.10;;;7.00;85.80;;;;;;5055104;28;20021;-73
2021/12/27 01:28:47;;;;;;;3.28;1.23;;;7.00;85.90;;;;;;5054906;28;20481;-74
2021/12/27 01:31:13;;;;;;;1.75;1.30;;;7.00;85.90;;;;;;5055132;28;20209;-73
2021/12/27 01:33:39;;;;;;;1.77;1.10;;;7.10;85.90;;;;;;5054724;28;20406;-75
2021/12/27 01:36:10;;;;;;;1.33;1.10;;;7.10;85.90;;;;;;5037028;28;20480;-72
2021/12/27 01:38:36;;;;;;;2.20;1.38;;;7.10;85.90;;;;;;5037050;28;20119;-72
2021/12/27 01:41:04;;;;;;;2.15;1.35;;;7.10;85.80;;;;;;5036634;28;20032;-72
2021/12/27 01:43:31;;;;;;;1.25;1.10;;;7.10;85.70;;;;;;5054807;28;20036;-73
2021/12/27 01:46:10;;;;;;;1.80;1.00;;;7.10;85.70;;;;;;5054600;28;20029;-71
2021/12/27 01:48:38;;;;;;;2.42;1.30;;;7.10;85.80;;;;;;5054609;28;20033;-73
2021/12/27 01:51:08;;;;;;;1.33;1.23;;;7.10;85.80;;;;;;5054709;28;20032;-73
2021/12/27 01:53:36;;;;;;;2.50;1.45;;;7.10;85.90;;;;;;5054562;28;20025;-72
2021/12/27 01:56:04;;;;;;;4.13;1.52;;;7.10;85.80;;;;;;5054601;28;20021;-74
2021/12/27 01:58:30;;;;;;;1.42;1.30;;;7.10;85.80;;;;;;5054602;28;20033;-72
2021/12/27 02:00:58;;;;;;;3.40;1.50;;;7.10;85.80;;;;;;5054580;28;20104;-71
2021/12/27 02:03:27;;;;;;;1.92;1.70;;;7.10;85.80;;;;;;5054464;28;20104;-73
2021/12/27 02:05:52;;;;;;;2.50;1.60;;;7.10;85.70;;;;;;5036893;28;20029;-73
2021/12/27 02:08:19;;;;;;;1.40;1.17;;;7.10;85.80;;;;;;5054268;28;20035;-71
2021/12/27 02:10:44;;;;;;;1.30;1.20;;;7.00;85.70;;;;;;5054333;28;20063;-71
2021/12/27 02:13:10;;;;;;;1.63;1.45;;;7.10;85.90;;;;;;5058255;28;20021;-73
2021/12/27 02:15:36;;;;;;;2.22;1.52;;;7.10;86.10;;;;;;5056974;28;20029;-72
2021/12/27 02:18:03;;;;;;;2.60;1.60;;;7.10;86.20;;;;;;5054280;28;20104;-72
2021/12/27 02:20:32;;;;;;;2.67;1.55;;;7.00;86.20;;;;;;5054004;28;20028;-72
2021/12/27 02:23:02;;;;;;;2.05;1.70;;;7.00;86.30;;;;;;5036151;28;20032;-71
2021/12/27 02:25:33;;;;;;;1.63;1.20;;;7.00;86.40;;;;;;5053798;28;20466;-71
2021/12/27 02:28:00;;;;;;;1.98;1.50;;;7.00;86.50;;;;;;5020124;28;20385;-72
2021/12/27 02:30:26;;;;;;;2.60;1.75;;;7.00;86.50;;;;;;5053933;28;20545;-73
2021/12/27 02:32:53;;;;;;;1.88;1.67;;;7.00;86.40;;;;;;5053811;28;20104;-72
2021/12/27 02:35:25;;;;;;;2.10;1.63;;;7.00;86.40;;;;;;5051490;28;20399;-72
2021/12/27 02:37:52;;;;;;;1.50;1.40;;;7.00;86.40;;;;;;5053674;28;20068;-72
2021/12/27 02:40:19;;;;;;;2.40;1.85;;;7.00;86.40;;;;;;5053758;28;20017;-73
2021/12/27 02:42:57;;;;;;;2.33;1.63;;;7.00;86.40;;;;;;5053624;28;20033;-73
2021/12/27 02:45:24;;;;;;;1.70;1.60;;;7.00;86.40;;;;;;5053548;28;20082;-73
2021/12/27 02:47:50;;;;;;;2.25;1.50;;;7.00;86.20;;;;;;5053401;28;20025;-73
2021/12/27 02:50:17;;;;;;;2.15;1.30;;;7.00;86.20;;;;;;5053564;28;20025;-72
2021/12/27 02:52:42;;;;;;;2.70;1.38;;;7.00;86.20;;;;;;5034996;28;20067;-72
2021/12/27 02:55:12;;;;;;;1.67;1.35;;;7.10;86.00;;;;;;5035611;28;20110;-73
2021/12/27 02:57:38;;;;;;;1.88;1.27;;;7.10;85.80;;;;;;5053245;28;20364;-73
2021/12/27 03:00:05;;;;;;;1.35;1.13;;;7.10;85.70;;;;;;5053337;28;20477;-73
2021/12/27 03:02:30;;;;;;;2.33;1.40;;;7.10;85.40;;;;;;5053268;28;20017;-72
2021/12/27 03:04:56;;;;;;;1.85;1.30;;;7.20;85.40;;;;;;5053330;28;20469;-73
2021/12/27 03:07:21;;;;;;;2.17;1.85;;;7.20;85.40;;;;;;5053371;28;20473;-72
2021/12/27 03:09:47;;;;;;;2.90;1.50;;;7.20;85.30;;;;;;5053249;28;20040;-73
2021/12/27 03:12:13;;;;;;;2.00;1.35;;;7.20;85.40;;;;;;5053224;28;20036;-72
2021/12/27 03:14:39;;;;;;;1.77;1.45;;;7.20;85.20;;;;;;5053179;28;20052;-73
2021/12/27 03:17:04;;;;;;;3.22;1.73;;;7.20;85.30;;;;;;5053029;28;20123;-72
2021/12/27 03:19:30;;;;;;;2.30;1.27;;;7.20;85.40;;;;;;5053199;28;20534;-72
2021/12/27 03:21:56;;;;;;;1.98;1.33;;;7.20;85.30;;;;;;5053029;28;20025;-75
2021/12/27 03:24:22;;;;;;;1.95;1.55;;;7.30;85.40;;;;;;5053101;28;20029;-75
2021/12/27 03:26:48;;;;;;;1.75;1.52;;;7.30;85.50;;;;;;5035244;28;20027;-75
2021/12/27 03:29:14;;;;;;;1.98;1.50;;;7.30;85.50;;;;;;5052962;28;20154;-75
2021/12/27 03:31:40;;;;;;;1.85;1.48;;;7.30;85.20;;;;;;5052842;28;20465;-74
2021/12/27 03:34:06;;;;;;;1.98;1.48;;;7.30;85.10;;;;;;5052855;28;20120;-76
2021/12/27 03:36:39;;;;;;;1.30;1.20;;;7.30;84.90;;;;;;5053111;28;20100;-76
2021/12/27 03:39:07;;;;;;;2.20;1.05;;;7.30;85.00;;;;;;5053059;28;20027;-76
2021/12/27 03:41:33;;;;;;;1.60;1.20;;;7.40;84.90;;;;;;5053111;28;20029;-75
2021/12/27 03:43:58;;;;;;;2.03;1.50;;;7.40;84.90;;;;;;5053204;28;20535;-75
2021/12/27 03:46:24;;;;;;;1.88;1.15;;;7.40;85.00;;;;;;5053049;28;20088;-76
2021/12/27 03:48:49;;;;;;;1.60;1.20;;;7.30;85.10;;;;;;5052880;28;20108;-76
2021/12/27 03:51:15;;;;;;;3.47;1.40;;;7.30;85.20;;;;;;5052889;28;20028;-76
2021/12/27 03:53:41;;;;;;;1.13;1.00;;;7.30;85.30;;;;;;5052922;28;20028;-73
2021/12/27 03:56:08;;;;;;;2.30;1.20;;;7.30;85.40;;;;;;5034890;28;20428;-74
2021/12/27 03:58:46;;;;;;;4.45;1.42;;;7.30;85.50;;;;;;5052810;28;20036;-73
2021/12/27 04:01:16;;;;;;;2.30;1.30;;;7.30;85.50;;;;;;5053184;28;20358;-73
2021/12/27 04:03:44;;;;;;;2.00;1.60;;;7.30;85.50;;;;;;5054030;28;20078;-75
2021/12/27 04:06:11;;;;;;;2.85;1.88;;;7.40;85.50;;;;;;5056749;28;20032;-75
2021/12/27 04:08:36;;;;;;;2.58;1.73;;;7.30;85.50;;;;;;5056722;28;20123;-74
2021/12/27 04:11:02;;;;;;;4.70;2.10;;;7.30;85.70;;;;;;5056742;28;20159;-74
2021/12/27 04:13:28;;;;;;;6.82;2.70;;;7.30;85.90;;;;;;5038893;28;20048;-73
2021/12/27 04:15:53;;;;;;;3.40;1.80;;;7.30;86.00;;;;;;5056815;28;20086;-73
2021/12/27 04:18:20;;;;;;;2.38;1.55;;;7.30;86.40;;;;;;5040197;28;20025;-74
2021/12/27 04:20:46;;;;;;;3.00;1.73;;;7.30;86.40;;;;;;5074340;28;20052;-72
2021/12/27 04:23:13;;;;;;;2.25;1.63;;;7.30;86.50;;;;;;5077602;28;20024;-73
2021/12/27 04:25:39;;;;;;;2.75;1.70;;;7.30;86.70;;;;;;5077927;28;20020;-73
2021/12/27 04:28:04;;;;;;;3.40;1.88;;;7.30;86.70;;;;;;5079746;28;20013;-74
2021/12/27 04:30:30;;;;;;;3.17;1.90;;;7.30;86.70;;;;;;5080157;28;20091;-74
2021/12/27 04:32:57;;;;;;;2.13;1.92;;;7.30;86.90;;;;;;5068305;28;20079;-75
2021/12/27 04:35:22;;;;;;;3.15;2.00;;;7.30;86.90;;;;;;5063964;28;20081;-75
2021/12/27 04:37:49;;;;;;;3.05;1.90;;;7.30;86.90;;;;;;5063711;28;20052;-76
2021/12/27 04:40:17;;;;;;;1.52;1.30;;;7.30;87.00;;;;;;5056632;28;20078;-76
2021/12/27 04:42:48;;;;;;;4.20;2.35;;;7.30;87.10;;;;;;5056511;28;20128;-76
2021/12/27 04:45:14;;;;;;;3.15;1.45;;;7.30;87.20;;;;;;5055717;28;20075;-76
2021/12/27 04:47:41;;;;;;;2.08;1.45;;;7.30;87.30;;;;;;5056000;28;20027;-76
2021/12/27 04:50:08;;;;;;;1.60;1.42;;;7.20;87.40;;;;;;5055817;28;20029;-77
2021/12/27 04:52:34;;;;;;;1.67;1.35;;;7.20;87.60;;;;;;5055895;28;20052;-76
2021/12/27 04:54:59;;;;;;;1.60;1.20;;;7.20;87.80;;;;;;5056080;28;20029;-75
2021/12/27 04:57:25;;;;;;;2.22;1.30;;;7.20;88.10;;;;;;5055858;28;20385;-76
2021/12/27 04:59:51;;;;;;;1.90;1.70;;;7.20;88.10;;;;;;5055772;28;20025;-74
2021/12/27 05:02:16;;;;;;;3.10;1.75;;;7.20;88.00;;;;;;5055721;28;20443;-75
2021/12/27 05:04:42;;;;;;;2.25;1.70;;;7.20;87.70;;;;;;5055605;28;20025;-76
2021/12/27 05:07:08;;;;;;;2.33;1.80;;;7.20;87.50;;;;;;5055117;28;20400;-76
2021/12/27 05:09:33;;;;;;;2.50;2.10;;;7.20;87.20;;;;;;5055459;28;20112;-75
2021/12/27 05:11:59;;;;;;;2.58;1.67;;;7.20;87.00;;;;;;5037603;28;20461;-76
2021/12/27 05:14:24;;;;;;;2.10;1.65;;;7.10;86.90;;;;;;5055537;28;20370;-76
2021/12/27 05:16:50;;;;;;;2.83;1.83;;;7.20;86.80;;;;;;5054729;28;20036;-76
2021/12/27 05:19:16;;;;;;;1.90;1.63;;;7.10;86.70;;;;;;5055397;28;20028;-74
2021/12/27 05:21:41;;;;;;;3.83;2.65;;;7.10;86.90;;;;;;5055234;28;20470;-73
2021/12/27 05:24:07;;;;;;;2.40;1.83;;;7.00;86.90;;;;;;5055314;28;20052;-76
2021/12/27 05:26:33;;;;;;;4.30;2.75;;;7.00;86.90;;;;;;5055179;28;20033;-76
2021/12/27 05:28:58;;;;;;;2.50;1.70;;;6.90;86.90;;;;;;5037270;28;20366;-76
2021/12/27 05:31:24;;;;;;;3.25;1.83;;;6.90;87.00;;;;;;5055321;28;20032;-76
2021/12/27 05:33:50;;;;;;;3.03;1.85;;;6.90;86.90;;;;;;5054859;28;20497;-75
2021/12/27 05:36:16;;;;;;;2.30;1.85;;;6.90;86.90;;;;;;5054927;28;20025;-76
2021/12/27 05:38:42;;;;;;;2.38;2.05;;;6.80;86.70;;;;;;5054957;28;20017;-76
2021/12/27 05:41:07;;;;;;;3.00;2.40;;;6.80;86.80;;;;;;5037076;28;20033;-75
2021/12/27 05:43:33;;;;;;;3.90;2.92;;;6.90;87.00;;;;;;5054860;28;20508;-75
2021/12/27 05:45:59;;;;;;;2.83;1.88;;;6.80;86.90;;;;;;5036983;28;20037;-74
2021/12/27 05:48:24;;;;;;;3.88;2.88;;;6.80;86.10;;;;;;5036875;28;20036;-74
2021/12/27 05:50:50;;;;;;;2.75;2.20;;;6.90;86.60;;;;;;5054758;28;20017;-75
2021/12/27 05:53:16;;;;;;;2.85;2.10;;;6.90;86.40;;;;;;5054611;28;20036;-75
2021/12/27 05:55:43;;;;;;;4.72;2.30;;;6.80;87.00;;;;;;5036727;28;20017;-75
2021/12/27 05:58:09;;;;;;;2.45;1.98;;;6.80;86.20;;;;;;5054379;28;20483;-74
2021/12/27 06:00:35;;;;;;;3.78;2.35;;;6.80;86.10;;;;;;5054592;28;20102;-75
2021/12/27 06:03:01;;;;;;;3.53;2.47;;;6.80;86.30;;;;;;5036814;28;20028;-75
2021/12/27 06:05:27;;;;;;;5.15;2.50;;;6.70;86.60;;;;;;5069875;28;20028;-74
2021/12/27 06:07:52;;;;;;;4.68;2.47;;;6.70;86.80;;;;;;5036436;28;20029;-73
2021/12/27 06:10:18;;;;;;;3.58;2.58;;;6.70;86.90;;;;;;5036545;28;20025;-74
2021/12/27 06:12:45;;;;;;;3.85;2.83;;;6.70;86.90;;;;;;5036474;28;20021;-75
2021/12/27 06:15:11;;;;;;;3.53;2.65;;;6.70;86.80;;;;;;5054339;28;20122;-76
2021/12/27 06:17:38;;;;;;;4.95;2.78;;;6.70;86.80;;;;;;5053910;28;20021;-74
2021/12/27 06:20:06;;;;;;;3.13;2.45;;;6.70;86.90;;;;;;5036247;28;20366;-74
2021/12/27 06:22:33;;;;;;;3.00;2.22;;;6.70;86.90;;;;;;5054096;28;20477;-74
2021/12/27 06:25:03;;;;;;;5.30;2.88;;;6.60;86.70;;;;;;5054140;28;20025;-75
2021/12/27 06:27:32;;;;;;;5.35;2.92;;;6.60;86.80;;;;;;5052999;28;20025;-75
2021/12/27 06:30:00;;;;;;;3.88;2.72;;;6.60;86.70;;;;;;5053800;28;20040;-76
2021/12/27 06:32:25;;;;;;;3.83;2.88;;;6.60;86.70;;;;;;5053903;28;20029;-75
2021/12/27 06:34:51;;;;;;;3.13;2.45;;;6.60;86.60;;;;;;5053711;28;20052;-75
2021/12/27 06:37:16;;;;;;;4.75;3.08;;;6.60;86.60;;;;;;5053832;28;20021;-74
2021/12/27 06:39:42;;;;;;;5.22;3.40;;;6.60;86.70;;;;;;5053680;28;20470;-74
2021/12/27 06:42:08;;;;;;;4.10;3.13;;;6.50;86.80;;;;;;5035876;28;20025;-74
2021/12/27 06:44:34;;;;;;;4.43;3.00;;;6.50;86.80;;;;;;5053709;28;20130;-74
2021/12/27 06:47:00;;;;;;;10.82;5.38;;;6.50;86.90;;;;;;5053667;28;20532;-75
2021/12/27 06:49:31;;;;;;;5.20;3.30;;;6.50;86.90;;;;;;5053321;28;20112;-75
2021/12/27 06:51:57;;;;;;;5.15;3.10;;;6.50;87.10;;;;;;5053301;28;20075;-75
2021/12/27 06:54:23;;;;;;;5.07;3.25;;;6.40;87.40;;;;;;5053306;28;20041;-74
2021/12/27 06:56:49;;;;;;;6.72;3.65;;;6.40;87.50;;;;;;5053361;28;20040;-75
2021/12/27 06:59:14;;;;;;;5.40;3.40;;;6.40;87.60;;;;;;5035523;28;20021;-75
2021/12/27 07:01:40;;;;;;;5.70;3.95;;;6.40;87.80;;;;;;5053341;28;20017;-74
2021/12/27 07:04:06;;;;;;;5.82;3.90;;;6.40;87.80;;;;;;5053219;28;20452;-73
2021/12/27 07:06:31;;;;;;;5.30;3.72;;;6.40;87.90;;;;;;5035121;28;20074;-75
2021/12/27 07:08:57;;;;;;;7.05;4.35;;;6.40;87.90;;;;;;5053194;28;20473;-74
2021/12/27 07:11:23;;;;;;;7.82;4.70;;;6.40;87.90;;;;;;5052937;28;20029;-74
2021/12/27 07:13:48;;;;;;;6.68;4.13;;;6.40;88.10;;;;;;5053085;28;20381;-74
2021/12/27 07:16:14;;;;;;;5.43;3.90;;;6.40;88.10;;;;;;5053098;28;20025;-75
2021/12/27 07:18:40;;;;;;;5.57;3.50;;;6.40;88.10;;;;;;5052956;28;20147;-74
2021/12/27 07:21:05;;;;;;;5.18;3.95;;;6.40;88.10;;;;;;5053196;28;20028;-73
2021/12/27 07:23:31;;;;;;;7.75;3.97;;;6.30;88.10;;;;;;5052911;28;20029;-77
2021/12/27 07:25:57;;;;;;;7.28;4.93;;;6.40;88.30;;;;;;5052789;28;20031;-76
2021/12/27 07:28:22;;;;;;;5.97;3.97;;;6.40;88.40;;;;;;5034698;28;20358;-75
2021/12/27 07:30:48;;;;;;;7.63;4.95;;;6.40;88.40;;;;;;5053048;28;20410;-74
2021/12/27 07:33:13;;;;;;;6.50;4.40;;;6.30;88.50;;;;;;5052730;28;20029;-75
2021/12/27 07:35:39;;;;;;;7.60;4.28;;;6.40;88.50;;;;;;5052512;28;20088;-75
2021/12/27 07:38:06;;;;;;;7.05;4.25;;;6.40;88.50;;;;;;5052568;28;20027;-74
2021/12/27 07:40:31;;;;;;;6.05;4.18;;;6.40;88.40;;;;;;5052876;28;20021;-74
2021/12/27 07:42:57;;;;;;;6.15;3.58;;;6.40;88.30;;;;;;5052626;28;20386;-74
2021/12/27 07:45:22;;;;;;;5.82;3.55;;;6.50;87.90;;;;;;5052944;28;20100;-73
2021/12/27 07:47:48;;;;;;;6.82;4.05;;;6.50;87.80;;;;;;5052749;28;20029;-73
2021/12/27 07:50:14;;;;;;;5.68;3.83;;;6.50;87.70;;;;;;5052511;28;20033;-72
2021/12/27 07:52:39;;;;;;;4.63;3.17;;;6.50;87.60;;;;;;5052526;28;20028;-72
2021/12/27 07:55:06;;;;;;;6.07;3.58;;;6.50;87.50;;;;;;5052753;28;20074;-73
2021/12/27 07:57:32;;;;;;;6.18;3.90;;;6.50;87.50;;;;;;5052711;28;20049;-74
2021/12/27 07:59:57;;;;;;;5.90;3.55;;;6.50;87.20;;;;;;5052691;28;20111;-74
2021/12/27 08:02:23;;;;;;;5.53;2.97;;;6.50;86.90;;;;;;5049057;28;20489;-72
2021/12/27 08:04:48;;;;;;;5.80;3.05;;;6.50;86.90;;;;;;5045706;28;20021;-74
2021/12/27 08:07:14;;;;;;;5.18;3.67;;;6.60;86.80;;;;;;5052419;28;20032;-73
2021/12/27 08:09:40;;;;;;;6.13;3.17;;;6.60;86.80;;;;;;5052232;28;20482;-73
2021/12/27 08:12:09;;;;;;;4.10;3.50;;;6.60;86.50;;;;;;5052507;28;20493;-73
2021/12/27 08:14:35;;;;;;;8.48;3.88;;;6.70;86.40;;;;;;5052401;28;20103;-74
2021/12/27 08:17:00;;;;;;;5.85;3.83;;;6.70;86.20;;;;;;5052611;28;20041;-75
2021/12/27 08:19:26;;;;;;;6.43;3.85;;;6.80;86.00;;;;;;5052110;28;20381;-74
2021/12/27 08:21:51;;;;;;;7.63;4.70;;;6.90;85.80;;;;;;5052207;28;20021;-76
2021/12/27 08:24:17;;;;;;;7.07;4.50;;;6.90;85.30;;;;;;5052235;28;20051;-74
2021/12/27 08:26:44;;;;;;;9.38;5.18;;;7.00;85.10;;;;;;5052185;28;20041;-75
2021/12/27 08:29:10;;;;;;;4.90;3.90;;;7.00;84.80;;;;;;5051971;28;20037;-75
2021/12/27 08:31:36;;;;;;;6.68;4.20;;;7.10;84.60;;;;;;5052091;28;20021;-76
2021/12/27 08:34:02;;;;;;;5.07;3.53;;;7.20;84.00;;;;;;5052024;28;20111;-74
2021/12/27 08:36:27;;;;;;;4.68;3.47;;;7.30;83.70;;;;;;5051980;28;20029;-74
2021/12/27 08:38:53;;;;;;;4.50;3.33;;;7.40;83.50;;;;;;5034470;28;20035;-75
2021/12/27 08:41:19;;;;;;;7.13;4.53;;;7.50;83.40;;;;;;5034505;28;20025;-75
2021/12/27 08:43:45;;;;;;;6.40;3.15;;;7.60;82.50;;;;;;5052009;28;20095;-75
2021/12/27 08:46:11;;;;;;;5.85;3.50;;;7.70;81.70;;;;;;5052069;28;20090;-75
2021/12/27 08:48:37;;;;;;;5.03;3.75;;;7.70;81.40;;;;;;5051969;28;20548;-76
2021/12/27 08:51:04;;;;;;;5.18;3.60;;;7.80;81.00;;;;;;5053321;28;20029;-76
2021/12/27 08:53:29;;;;;;;6.20;3.85;;;8.00;81.40;;;;;;5055162;28;20021;-75
2021/12/27 08:55:55;;;;;;;5.18;3.47;;;8.00;80.20;;;;;;5055138;28;20095;-75
2021/12/27 08:58:21;;;;;;;4.63;3.35;;;8.10;79.90;;;;;;5055564;28;20032;-75
2021/12/27 09:00:46;;;;;;;4.03;3.20;;;8.20;79.30;;;;;;5055497;28;20083;-73
2021/12/27 09:03:13;;;;;;;4.35;3.40;;;8.30;78.80;;;;;;5055587;28;20032;-75
2021/12/27 09:05:42;;;;;;;5.18;3.47;;;8.50;78.70;;;;;;5055442;28;20025;-76
2021/12/27 09:08:09;;;;;;;6.50;4.20;;;8.80;77.50;;;;;;5055812;28;20521;-75
2021/12/27 09:10:35;;;;;;;7.20;4.07;;;9.10;76.70;;;;;;5056179;28;20083;-78
2021/12/27 09:13:00;;;;;;;5.95;3.97;;;9.60;75.80;;;;;;5056109;28;20473;-75
2021/12/27 09:15:28;;;;;;;6.63;4.13;;;10.00;74.10;;;;;;5056976;28;20040;-76
2021/12/27 09:17:54;;;;;;;5.22;3.92;;;10.20;71.70;;;;;;5041118;28;20047;-73
2021/12/27 09:20:21;;;;;;;11.65;4.50;;;10.30;71.20;;;;;;5059677;28;20091;-74
2021/12/27 09:22:47;;;;;;;7.93;3.90;;;10.40;71.00;;;;;;5055908;28;20032;-78
2021/12/27 09:25:12;;;;;;;6.28;4.20;;;10.40;71.90;;;;;;5055069;28;20468;-79
2021/12/27 09:27:38;;;;;;;5.07;3.38;;;10.10;71.90;;;;;;5055173;28;20541;-78
2021/12/27 09:30:05;;;;;;;4.68;3.63;;;10.30;72.70;;;;;;5055059;28;20107;-76
2021/12/27 09:32:30;;;;;;;4.40;3.47;;;10.60;71.90;;;;;;5036956;28;20021;-76
2021/12/27 09:34:56;;;;;;;6.45;4.45;;;11.00;69.70;;;;;;5054591;28;20114;-77
2021/12/27 09:37:22;;;;;;;5.30;3.55;;;11.80;67.80;;;;;;5054977;28;20031;-82
2021/12/27 09:39:53;;;;;;;3.80;2.97;;;12.60;65.00;;;;;;5055054;28;20033;-73
2021/12/27 09:42:21;;;;;;;4.78;3.33;;;12.90;60.70;;;;;;5054754;28;20025;-74
2021/12/27 09:44:46;;;;;;;6.88;3.28;;;12.80;59.80;;;;;;5054305;28;20032;-74
2021/12/27 09:47:12;;;;;;;4.45;3.17;;;12.70;60.80;;;;;;5054594;28;20021;-73
2021/12/27 09:49:37;;;;;;;3.13;2.55;;;12.50;61.10;;;;;;5054187;28;20036;-73
2021/12/27 09:52:04;;;;;;;3.20;2.67;;;12.20;61.70;;;;;;5054469;28;20035;-75
2021/12/27 09:54:29;;;;;;;4.07;3.25;;;12.00;62.40;;;;;;5036480;28;20108;-74
2021/12/27 09:56:56;;;;;;;3.95;3.10;;;11.80;62.90;;;;;;5036351;28;20056;-74
2021/12/27 09:59:22;;;;;;;3.70;2.95;;;11.70;63.80;;;;;;5054441;28;20033;-74
2021/12/27 10:01:49;;;;;;;3.78;3.03;;;11.80;64.00;;;;;;5053998;28;20029;-73
2021/12/27 10:04:14;;;;;;;4.85;3.15;;;11.70;63.80;;;;;;5054254;28;20071;-74
2021/12/27 10:06:41;;;;;;;3.90;2.92;;;11.60;64.10;;;;;;5054031;28;20025;-75
2021/12/27 10:09:06;;;;;;;6.65;3.53;;;11.40;64.50;;;;;;5053864;28;20037;-73
2021/12/27 10:11:38;;;;;;;3.67;2.63;;;11.60;64.70;;;;;;5054095;28;20362;-76
2021/12/27 10:14:18;;;;;;;3.75;2.92;;;11.80;64.10;;;;;;5054005;28;20033;-74
2021/12/27 10:16:49;;;;;;;3.33;2.63;;;12.00;62.70;;;;;;5054205;28;20107;-72
2021/12/27 10:19:18;;;;;;;4.22;2.90;;;12.00;62.60;;;;;;5053973;28;20029;-74
2021/12/27 10:21:45;;;;;;;4.03;3.00;;;11.80;62.90;;;;;;5053704;28;20021;-73
2021/12/27 10:24:15;;;;;;;3.90;3.25;;;11.80;63.10;;;;;;5053794;28;20033;-73
2021/12/27 10:26:44;;;;;;;4.32;3.15;;;11.50;63.80;;;;;;5053754;28;20461;-74
2021/12/27 10:29:19;;;;;;;3.78;3.05;;;11.40;65.40;;;;;;5053601;28;20087;-75
2021/12/27 10:32:10;;;;;;;3.63;2.80;;;11.70;65.00;;;;;;5035656;28;20056;-75
2021/12/27 10:34:47;;;;;;;5.57;3.50;;;11.70;64.20;;;;;;5053548;28;20077;-75
2021/12/27 10:37:25;;;;;;;3.22;2.90;;;11.30;64.90;;;;;;5053671;28;20075;-74
2021/12/27 10:39:57;;;;;;;4.15;3.20;;;11.00;66.90;;;;;;5035576;28;20120;-77
2021/12/27 10:42:35;;;;;;;3.42;2.80;;;11.20;66.80;;;;;;5053556;28;20116;-75
2021/12/27 10:45:11;;;;;;;3.50;3.03;;;11.70;65.00;;;;;;5053396;28;20021;-77
2021/12/27 10:47:51;;;;;;;4.03;2.90;;;12.10;63.20;;;;;;5053392;28;20113;-75
2021/12/27 10:50:19;;;;;;;4.32;3.20;;;12.70;60.80;;;;;;5053502;28;20044;-77
2021/12/27 10:52:49;;;;;;;3.88;2.85;;;13.10;58.70;;;;;;5053451;28;20025;-76
2021/12/27 10:55:18;;;;;;;5.15;3.35;;;13.40;57.90;;;;;;5053472;28;20108;-76
2021/12/27 10:57:44;;;;;;;3.63;3.00;;;13.70;56.90;;;;;;5052817;28;20029;-76
2021/12/27 11:00:22;;;;;;;4.50;2.95;;;13.60;56.60;;;;;;5053195;28;20031;-76
2021/12/27 11:02:47;;;;;;;3.53;2.70;;;13.90;57.20;;;;;;5052935;28;20028;-77
2021/12/27 11:05:23;;;;;;;4.13;2.78;;;14.30;54.30;;;;;;5053020;28;20028;-76
2021/12/27 11:08:05;;;;;;;3.25;2.80;;;14.40;53.30;;;;;;5052210;28;20086;-76
2021/12/27 11:10:36;;;;;;;3.30;2.55;;;14.10;53.50;;;;;;5053172;28;20090;-77
2021/12/27 11:13:04;;;;;;;3.08;2.58;;;13.70;54.40;;;;;;5052524;28;20025;-77
2021/12/27 11:15:32;;;;;;;2.83;2.42;;;13.50;55.60;;;;;;5053160;28;20495;-77
2021/12/27 11:17:58;;;;;;;3.05;2.75;;;13.50;56.70;;;;;;5035295;28;20017;-76
2021/12/27 11:20:24;;;;;;;7.47;3.00;;;13.40;55.80;;;;;;5053297;28;20025;-78
2021/12/27 11:22:54;;;;;;;3.25;2.58;;;13.60;56.10;;;;;;5052964;28;20104;-76
2021/12/27 11:25:36;;;;;;;4.50;3.25;;;13.60;55.60;;;;;;5052934;28;20028;-77
2021/12/27 11:28:02;;;;;;;3.78;2.60;;;13.80;55.40;;;;;;5052853;28;20063;-77
2021/12/27 11:30:31;;;;;;;3.42;2.58;;;14.10;54.80;;;;;;5034789;28;20028;-77
2021/12/27 11:33:16;;;;;;;4.63;2.80;;;14.50;53.70;;;;;;5034743;28;20130;-76
2021/12/27 11:35:51;;;;;;;2.97;2.35;;;14.90;51.90;;;;;;5034828;28;20048;-75
2021/12/27 11:38:35;;;;;;;3.45;2.78;;;14.90;52.30;;;;;;5034942;28;20040;-76
2021/12/27 11:41:03;;;;;;;3.47;2.60;;;14.60;52.20;;;;;;5035303;28;20021;-76
2021/12/27 11:44:00;;;;;;;4.35;2.70;;;14.10;53.40;;;;;;5052897;28;20107;-78
2021/12/27 11:46:29;;;;;;;4.60;2.30;;;13.90;54.30;;;;;;5036301;28;20029;-77
2021/12/27 11:48:58;;;;;;;3.45;2.50;;;13.80;55.30;;;;;;5052344;28;20025;-74
2021/12/27 11:51:34;;;;;;;2.53;2.00;;;13.60;56.00;;;;;;5052809;28;20056;-74
2021/12/27 11:54:02;;;;;;;2.10;1.63;;;13.40;57.10;;;;;;5052491;28;20025;-76
2021/12/27 11:56:37;;;;;;;2.00;1.50;;;13.20;57.30;;;;;;5052600;28;20029;-77
2021/12/27 11:59:23;;;;;;;3.73;1.40;;;13.00;57.50;;;;;;5052709;28;20429;-76
2021/12/27 12:01:54;;;;;;;2.22;1.58;;;13.10;58.40;;;;;;5053267;28;20022;-77
2021/12/27 12:04:42;;;;;;;2.72;1.55;;;14.70;55.20;;;;;;5034555;28;20421;-75
2021/12/27 12:07:09;;;;;;;1.88;1.60;;;17.60;47.20;;;;;;5052543;28;20397;-75
2021/12/27 12:09:45;;;;;;;3.30;1.35;;;19.30;40.80;;;;;;5052281;28;20124;-74
2021/12/27 12:12:13;;;;;;;2.60;2.20;;;20.20;38.00;;;;;;5052550;28;20025;-72
2021/12/27 12:14:40;;;;;;;2.33;1.20;;;20.60;36.70;;;;;;5052458;28;20044;-72
2021/12/27 12:17:09;;;;;;;1.20;1.00;;;20.30;36.00;;;;;;5052372;28;20483;-74
2021/12/27 12:19:39;;;;;;;1.70;1.45;;;18.40;39.00;;;;;;5052073;28;20025;-73
2021/12/27 12:22:25;;;;;;;1.58;1.27;;;16.60;43.60;;;;;;5051970;28;20379;-74
2021/12/27 12:25:10;;;;;;;1.40;1.15;;;15.40;47.00;;;;;;5035693;28;20458;-72
2021/12/27 12:27:35;;;;;;;1.20;1.10;;;14.20;51.90;;;;;;5056072;28;20025;-72
2021/12/27 12:30:02;;;;;;;1.95;1.27;;;13.20;55.10;;;;;;5056290;28;20094;-74
2021/12/27 12:32:27;;;;;;;2.53;1.35;;;12.60;57.90;;;;;;5056214;28;20025;-74
2021/12/27 12:34:53;;;;;;;1.27;1.17;;;12.20;59.60;;;;;;5055640;28;20056;-74
2021/12/27 12:37:19;;;;;;;1.48;1.23;;;11.80;61.80;;;;;;5055908;28;20029;-73
2021/12/27 12:39:48;;;;;;;1.08;1.02;;;11.60;64.00;;;;;;5056068;28;20032;-73
2021/12/27 12:42:22;;;;;;;1.70;1.00;;;11.40;64.60;;;;;;5055853;28;20024;-73
2021/12/27 12:44:59;;;;;;;1.65;0.95;;;11.30;65.00;;;;;;5037849;28;20104;-73
2021/12/27 12:47:27;;;;;;;1.17;1.00;;;11.20;65.60;;;;;;5055817;28;20525;-73
2021/12/27 12:49:52;;;;;;;0.90;0.75;;;11.20;66.20;;;;;;5055539;28;20127;-72
2021/12/27 12:52:20;;;;;;;2.92;1.20;;;11.10;66.80;;;;;;5055724;28;20473;-75
2021/12/27 12:54:46;;;;;;;1.05;0.98;;;11.10;67.70;;;;;;5055452;28;20032;-73